createdAt,value
2018-11-05T00:00:16.705Z,10.65
2018-11-05T00:01:16.735Z,10.65
2018-11-05T00:02:17.067Z,10.67
2018-11-05T00:03:16.380Z,10.65
2018-11-05T00:04:16.709Z,10.64
2018-11-05T00:05:17.019Z,10.65
2018-11-05T00:06:16.347Z,10.64
2018-11-05T00:07:16.645Z,10.61
2018-11-05T00:08:16.945Z,10.64
2018-11-05T00:09:16.255Z,10.63
2018-11-05T00:10:16.593Z,10.60
2018-11-05T00:11:16.640Z,10.60
2018-11-05T00:12:16.955Z,10.60
2018-11-05T00:13:16.275Z,10.60
2018-11-05T00:14:16.585Z,10.64
2018-11-05T00:15:16.891Z,10.61
2018-11-05T00:16:17.229Z,10.58
2018-11-05T00:17:16.544Z,10.61
2018-11-05T00:18:16.821Z,10.63
2018-11-05T00:19:17.176Z,10.63
2018-11-05T00:20:16.536Z,10.60
2018-11-05T00:21:16.585Z,10.64
2018-11-05T00:22:16.910Z,10.63
2018-11-05T00:23:17.198Z,10.61
2018-11-05T00:24:16.527Z,10.61
2018-11-05T00:25:16.824Z,10.61
2018-11-05T00:26:17.136Z,10.57
2018-11-05T00:27:16.479Z,10.60
2018-11-05T00:28:16.840Z,10.56
2018-11-05T00:29:17.169Z,10.57
2018-11-05T00:30:16.505Z,10.56
2018-11-05T00:31:16.534Z,10.54
2018-11-05T00:32:16.831Z,10.54
2018-11-05T00:33:17.146Z,10.58
2018-11-05T00:34:16.463Z,10.57
2018-11-05T00:35:16.774Z,10.60
2018-11-05T00:36:17.095Z,10.61
2018-11-05T00:37:16.424Z,10.61
2018-11-05T00:38:16.715Z,10.63
2018-11-05T00:39:17.011Z,10.60
2018-11-05T00:40:16.321Z,10.60
2018-11-05T00:41:16.378Z,10.58
2018-11-05T00:42:16.691Z,10.60
2018-11-05T00:43:16.994Z,10.61
2018-11-05T00:44:16.325Z,10.63
2018-11-05T00:45:16.667Z,10.60
2018-11-05T00:46:16.970Z,10.61
2018-11-05T00:47:16.254Z,10.60
2018-11-05T00:48:16.585Z,10.64
2018-11-05T00:49:16.875Z,10.60
2018-11-05T00:50:17.222Z,10.60
2018-11-05T00:51:16.246Z,10.58
2018-11-05T00:52:16.537Z,10.58
2018-11-05T00:53:16.850Z,10.58
2018-11-05T00:54:16.313Z,10.54
2018-11-05T00:55:16.621Z,10.57
2018-11-05T00:56:16.932Z,10.56
2018-11-05T00:57:16.249Z,10.58
2018-11-05T00:58:16.538Z,10.64
2018-11-05T00:59:16.833Z,10.63
2018-11-05T01:00:17.206Z,10.64
2018-11-05T01:01:16.279Z,10.67
2018-11-05T01:02:16.588Z,10.64
2018-11-05T01:03:16.858Z,10.65
2018-11-05T01:04:17.151Z,10.65
2018-11-05T01:05:16.485Z,10.68
2018-11-05T01:06:16.806Z,10.68
2018-11-05T01:07:17.119Z,10.65
2018-11-05T01:08:16.409Z,10.64
2018-11-05T01:09:16.707Z,10.67
2018-11-05T01:10:17.060Z,10.63
2018-11-05T01:11:17.104Z,10.65
2018-11-05T01:12:16.419Z,10.65
2018-11-05T01:13:16.754Z,10.67
2018-11-05T01:14:17.094Z,10.67
2018-11-05T01:15:16.410Z,10.64
2018-11-05T01:16:16.691Z,10.64
2018-11-05T01:17:17.007Z,10.63
2018-11-05T01:18:16.322Z,10.65
2018-11-05T01:19:16.635Z,10.64
2018-11-05T01:20:16.307Z,10.63
2018-11-05T01:21:16.339Z,10.64
2018-11-05T01:22:16.662Z,10.64
2018-11-05T01:23:16.973Z,10.61
2018-11-05T01:24:16.277Z,10.63
2018-11-05T01:25:16.595Z,10.65
2018-11-05T01:26:16.919Z,10.65
2018-11-05T01:27:17.205Z,10.72
2018-11-05T01:28:16.509Z,10.70
2018-11-05T01:29:16.831Z,10.68
2018-11-05T01:30:17.115Z,10.65
2018-11-05T01:31:17.181Z,10.65
2018-11-05T01:32:16.487Z,10.70
2018-11-05T01:33:16.793Z,10.68
2018-11-05T01:34:17.415Z,10.67
2018-11-05T01:35:16.690Z,10.70
2018-11-05T01:36:17.027Z,10.67
2018-11-05T01:37:16.397Z,10.65
2018-11-05T01:38:16.850Z,10.67
2018-11-05T01:39:17.201Z,10.64
2018-11-05T01:40:16.537Z,10.61
2018-11-05T01:41:16.564Z,10.64
2018-11-05T01:42:16.863Z,10.64
2018-11-05T01:43:17.192Z,10.64
2018-11-05T01:44:16.497Z,10.63
2018-11-05T01:45:16.831Z,10.63
2018-11-05T01:46:17.143Z,10.63
2018-11-05T01:47:16.448Z,10.57
2018-11-05T01:48:16.717Z,10.54
2018-11-05T01:49:17.006Z,10.51
2018-11-05T01:50:16.310Z,10.51
2018-11-05T01:51:16.346Z,10.52
2018-11-05T01:52:16.659Z,10.51
2018-11-05T01:53:16.963Z,10.52
2018-11-05T01:54:16.287Z,10.56
2018-11-05T01:55:16.621Z,10.54
2018-11-05T01:56:16.950Z,10.56
2018-11-05T01:57:16.220Z,10.56
2018-11-05T01:58:16.502Z,10.52
2018-11-05T01:59:16.813Z,10.51
2018-11-05T02:00:17.129Z,10.52
2018-11-05T02:01:17.173Z,10.48
2018-11-05T02:02:16.490Z,10.47
2018-11-05T02:03:16.798Z,10.45
2018-11-05T02:04:17.103Z,10.47
2018-11-05T02:05:16.412Z,10.47
2018-11-05T02:06:16.718Z,10.45
2018-11-05T02:07:17.022Z,10.45
2018-11-05T02:08:16.315Z,10.45
2018-11-05T02:09:16.650Z,10.44
2018-11-05T02:10:17.073Z,10.37
2018-11-05T02:11:16.997Z,10.37
2018-11-05T02:12:16.344Z,10.37
2018-11-05T02:13:16.697Z,10.39
2018-11-05T02:14:17.181Z,10.37
2018-11-05T02:15:16.511Z,10.37
2018-11-05T02:16:17.063Z,10.36
2018-11-05T02:17:16.380Z,10.31
2018-11-05T02:18:16.652Z,10.30
2018-11-05T02:19:16.932Z,10.30
2018-11-05T02:20:16.288Z,10.26
2018-11-05T02:21:16.319Z,10.26
2018-11-05T02:22:16.622Z,10.23
2018-11-05T02:23:16.945Z,10.16
2018-11-05T02:24:16.228Z,10.14
2018-11-05T02:25:16.561Z,10.12
2018-11-05T02:26:16.878Z,10.06
2018-11-05T02:27:17.260Z,10.08
2018-11-05T02:28:16.805Z,10.12
2018-11-05T02:29:17.089Z,10.08
2018-11-05T02:30:16.410Z,10.08
2018-11-05T02:31:16.434Z,10.02
2018-11-05T02:32:16.732Z,9.99
2018-11-05T02:33:17.071Z,9.96
2018-11-05T02:34:16.375Z,9.93
2018-11-05T02:35:16.702Z,9.93
2018-11-05T02:36:17.044Z,9.89
2018-11-05T02:37:16.670Z,9.91
2018-11-05T02:38:17.005Z,9.92
2018-11-05T02:39:16.338Z,9.93
2018-11-05T02:40:16.652Z,9.93
2018-11-05T02:41:16.705Z,9.86
2018-11-05T02:42:17.016Z,9.86
2018-11-05T02:43:16.343Z,9.86
2018-11-05T02:44:16.662Z,9.84
2018-11-05T02:45:16.976Z,9.81
2018-11-05T02:46:16.305Z,9.85
2018-11-05T02:47:16.628Z,9.88
2018-11-05T02:48:16.922Z,9.81
2018-11-05T02:49:16.241Z,9.69
2018-11-05T02:50:16.545Z,9.69
2018-11-05T02:51:16.597Z,9.61
2018-11-05T02:52:16.939Z,9.58
2018-11-05T02:53:16.250Z,9.58
2018-11-05T02:54:16.567Z,9.58
2018-11-05T02:55:16.866Z,9.51
2018-11-05T02:56:17.199Z,9.47
2018-11-05T02:57:16.498Z,9.36
2018-11-05T02:58:16.814Z,9.37
2018-11-05T02:59:17.158Z,9.47
2018-11-05T03:00:16.499Z,9.38
2018-11-05T03:01:16.538Z,9.37
2018-11-05T03:02:17.286Z,9.38
2018-11-05T03:03:16.657Z,9.37
2018-11-05T03:04:17.161Z,9.37
2018-11-05T03:05:16.472Z,9.37
2018-11-05T03:06:16.766Z,9.37
2018-11-05T03:07:17.048Z,9.22
2018-11-05T03:08:16.344Z,9.24
2018-11-05T03:09:16.633Z,9.24
2018-11-05T03:10:16.965Z,9.22
2018-11-05T03:11:17.005Z,9.22
2018-11-05T03:12:16.338Z,9.22
2018-11-05T03:13:16.668Z,9.17
2018-11-05T03:14:16.956Z,9.10
2018-11-05T03:15:16.261Z,9.02
2018-11-05T03:16:16.593Z,8.94
2018-11-05T03:17:16.877Z,8.96
2018-11-05T03:18:17.190Z,8.99
2018-11-05T03:19:16.538Z,9.00
2018-11-05T03:20:16.834Z,9.06
2018-11-05T03:21:16.919Z,9.05
2018-11-05T03:22:16.249Z,8.99
2018-11-05T03:23:16.564Z,8.95
2018-11-05T03:24:16.873Z,8.86
2018-11-05T03:25:17.185Z,8.82
2018-11-05T03:26:16.491Z,8.80
2018-11-05T03:27:16.816Z,8.75
2018-11-05T03:28:17.116Z,8.72
2018-11-05T03:29:16.440Z,8.72
2018-11-05T03:30:16.751Z,8.71
2018-11-05T03:31:16.825Z,8.64
2018-11-05T03:32:17.370Z,8.64
2018-11-05T03:33:16.669Z,8.59
2018-11-05T03:34:16.972Z,8.58
2018-11-05T03:35:16.276Z,8.71
2018-11-05T03:36:16.612Z,8.80
2018-11-05T03:37:16.931Z,8.78
2018-11-05T03:38:17.131Z,8.65
2018-11-05T03:39:16.476Z,8.64
2018-11-05T03:40:16.781Z,8.72
2018-11-05T03:41:16.829Z,8.72
2018-11-05T03:42:17.115Z,8.75
2018-11-05T03:43:16.449Z,8.68
2018-11-05T03:44:16.755Z,8.59
2018-11-05T03:45:17.072Z,8.52
2018-11-05T03:46:16.400Z,8.54
2018-11-05T03:47:16.710Z,8.50
2018-11-05T03:48:17.023Z,8.51
2018-11-05T03:49:16.339Z,8.55
2018-11-05T03:50:16.674Z,8.52
2018-11-05T03:51:16.689Z,8.48
2018-11-05T03:52:17.009Z,8.48
2018-11-05T03:53:16.285Z,8.50
2018-11-05T03:54:16.929Z,8.40
2018-11-05T03:55:16.930Z,8.26
2018-11-05T03:56:16.402Z,8.24
2018-11-05T03:57:17.029Z,8.26
2018-11-05T03:58:16.323Z,8.27
2018-11-05T03:59:16.614Z,8.27
2018-11-05T04:00:16.975Z,8.47
2018-11-05T04:01:17.003Z,8.39
2018-11-05T04:02:16.331Z,8.34
2018-11-05T04:03:16.713Z,8.33
2018-11-05T04:04:16.259Z,8.27
2018-11-05T04:05:16.580Z,8.29
2018-11-05T04:06:16.943Z,8.39
2018-11-05T04:07:16.299Z,8.44
2018-11-05T04:08:16.587Z,8.50
2018-11-05T04:09:16.887Z,8.52
2018-11-05T04:10:17.191Z,8.54
2018-11-05T04:11:16.306Z,8.44
2018-11-05T04:12:16.615Z,8.41
2018-11-05T04:13:16.923Z,8.37
2018-11-05T04:14:16.248Z,8.43
2018-11-05T04:15:16.574Z,8.41
2018-11-05T04:16:16.967Z,8.24
2018-11-05T04:17:16.246Z,8.23
2018-11-05T04:18:16.545Z,8.14
2018-11-05T04:19:16.857Z,8.13
2018-11-05T04:20:17.198Z,8.10
2018-11-05T04:21:16.240Z,8.06
2018-11-05T04:22:16.591Z,8.03
2018-11-05T04:23:16.921Z,7.91
2018-11-05T04:24:16.255Z,7.89
2018-11-05T04:25:16.603Z,7.84
2018-11-05T04:26:16.901Z,7.84
2018-11-05T04:27:17.227Z,7.84
2018-11-05T04:28:16.530Z,7.82
2018-11-05T04:29:16.826Z,7.81
2018-11-05T04:30:17.147Z,7.77
2018-11-05T04:31:17.211Z,7.81
2018-11-05T04:32:16.504Z,7.80
2018-11-05T04:33:16.812Z,7.74
2018-11-05T04:34:17.118Z,7.71
2018-11-05T04:35:16.471Z,7.78
2018-11-05T04:36:17.059Z,7.78
2018-11-05T04:37:16.379Z,7.68
2018-11-05T04:38:16.691Z,7.64
2018-11-05T04:39:16.982Z,7.57
2018-11-05T04:40:16.311Z,7.51
2018-11-05T04:41:16.321Z,7.35
2018-11-05T04:42:16.636Z,7.20
2018-11-05T04:43:16.930Z,7.27
2018-11-05T04:44:16.225Z,7.26
2018-11-05T04:45:16.538Z,7.26
2018-11-05T04:46:16.870Z,7.31
2018-11-05T04:47:17.211Z,7.40
2018-11-05T04:48:16.555Z,7.54
2018-11-05T04:49:16.864Z,7.53
2018-11-05T04:50:17.198Z,7.45
2018-11-05T04:51:16.279Z,7.29
2018-11-05T04:52:16.622Z,7.26
2018-11-05T04:53:16.943Z,7.26
2018-11-05T04:54:16.248Z,7.26
2018-11-05T04:55:16.543Z,7.20
2018-11-05T04:56:16.861Z,7.15
2018-11-05T04:57:17.165Z,7.10
2018-11-05T04:58:16.468Z,7.05
2018-11-05T04:59:16.775Z,7.02
2018-11-05T05:00:17.096Z,7.00
2018-11-05T05:01:17.416Z,7.00
2018-11-05T05:02:16.719Z,7.03
2018-11-05T05:03:17.007Z,7.05
2018-11-05T05:04:16.465Z,7.06
2018-11-05T05:05:16.795Z,7.07
2018-11-05T05:06:17.099Z,7.09
2018-11-05T05:07:16.385Z,7.06
2018-11-05T05:08:16.679Z,7.03
2018-11-05T05:09:17.038Z,7.05
2018-11-05T05:10:16.398Z,7.02
2018-11-05T05:11:16.394Z,6.99
2018-11-05T05:12:16.702Z,6.95
2018-11-05T05:13:17.009Z,6.95
2018-11-05T05:14:16.305Z,6.98
2018-11-05T05:15:16.627Z,6.99
2018-11-05T05:16:17.095Z,7.00
2018-11-05T05:17:16.647Z,7.00
2018-11-05T05:18:16.949Z,7.02
2018-11-05T05:19:16.247Z,6.99
2018-11-05T05:20:16.554Z,7.06
2018-11-05T05:21:16.604Z,7.17
2018-11-05T05:22:16.994Z,7.20
2018-11-05T05:23:16.493Z,7.23
2018-11-05T05:24:16.780Z,7.20
2018-11-05T05:25:17.115Z,7.15
2018-11-05T05:26:16.421Z,7.12
2018-11-05T05:27:16.757Z,7.02
2018-11-05T05:28:17.099Z,6.86
2018-11-05T05:29:16.445Z,6.67
2018-11-05T05:30:16.753Z,6.67
2018-11-05T05:31:16.777Z,6.69
2018-11-05T05:32:17.071Z,6.69
2018-11-05T05:33:16.425Z,6.63
2018-11-05T05:34:16.767Z,6.61
2018-11-05T05:35:17.075Z,6.57
2018-11-05T05:36:16.379Z,6.58
2018-11-05T05:37:16.934Z,6.64
2018-11-05T05:38:16.252Z,6.64
2018-11-05T05:39:16.572Z,6.68
2018-11-05T05:40:16.867Z,6.75
2018-11-05T05:41:17.010Z,6.67
2018-11-05T05:42:16.471Z,6.72
2018-11-05T05:43:16.801Z,6.74
2018-11-05T05:44:17.124Z,6.74
2018-11-05T05:45:16.457Z,6.78
2018-11-05T05:46:16.779Z,6.81
2018-11-05T05:47:17.101Z,6.78
2018-11-05T05:48:16.413Z,6.71
2018-11-05T05:49:16.708Z,6.81
2018-11-05T05:50:17.182Z,6.85
2018-11-05T05:51:17.090Z,6.85
2018-11-05T05:52:16.403Z,6.89
2018-11-05T05:53:16.693Z,6.84
2018-11-05T05:54:17.008Z,6.84
2018-11-05T05:55:16.339Z,6.84
2018-11-05T05:56:16.646Z,6.84
2018-11-05T05:57:16.950Z,6.94
2018-11-05T05:58:16.239Z,6.98
2018-11-05T05:59:16.514Z,6.99
2018-11-05T06:00:16.860Z,7.09
2018-11-05T06:01:16.915Z,7.06
2018-11-05T06:02:17.516Z,7.12
2018-11-05T06:03:16.796Z,7.17
2018-11-05T06:04:17.111Z,7.22
2018-11-05T06:05:16.455Z,7.26
2018-11-05T06:06:16.901Z,7.27
2018-11-05T06:07:16.886Z,7.07
2018-11-05T06:08:17.213Z,7.05
2018-11-05T06:09:16.539Z,6.99
2018-11-05T06:10:16.856Z,6.89
2018-11-05T06:11:16.880Z,6.91
2018-11-05T06:12:17.184Z,6.91
2018-11-05T06:13:16.527Z,6.89
2018-11-05T06:14:16.837Z,6.92
2018-11-05T06:15:17.162Z,7.02
2018-11-05T06:16:16.471Z,7.02
2018-11-05T06:17:16.782Z,7.06
2018-11-05T06:18:17.090Z,7.03
2018-11-05T06:19:16.388Z,7.02
2018-11-05T06:20:16.718Z,6.95
2018-11-05T06:21:16.762Z,6.99
2018-11-05T06:22:17.050Z,6.95
2018-11-05T06:23:16.351Z,6.92
2018-11-05T06:24:16.697Z,6.85
2018-11-05T06:25:17.037Z,6.82
2018-11-05T06:26:16.381Z,6.82
2018-11-05T06:27:16.673Z,6.92
2018-11-05T06:28:17.011Z,7.00
2018-11-05T06:29:16.359Z,7.10
2018-11-05T06:30:16.680Z,7.09
2018-11-05T06:31:16.707Z,7.05
2018-11-05T06:32:17.039Z,7.06
2018-11-05T06:33:16.959Z,7.09
2018-11-05T06:34:16.338Z,7.09
2018-11-05T06:35:16.716Z,7.10
2018-11-05T06:36:16.288Z,7.03
2018-11-05T06:37:16.618Z,7.03
2018-11-05T06:38:16.917Z,7.05
2018-11-05T06:39:16.247Z,7.00
2018-11-05T06:40:16.559Z,7.02
2018-11-05T06:41:16.706Z,6.98
2018-11-05T06:42:16.222Z,7.00
2018-11-05T06:43:16.519Z,7.00
2018-11-05T06:44:16.812Z,6.95
2018-11-05T06:45:16.486Z,6.95
2018-11-05T06:46:16.968Z,6.98
2018-11-05T06:47:16.262Z,7.00
2018-11-05T06:48:16.574Z,7.02
2018-11-05T06:49:16.874Z,7.02
2018-11-05T06:50:17.193Z,6.98
2018-11-05T06:51:16.210Z,7.00
2018-11-05T06:52:16.564Z,6.95
2018-11-05T06:53:16.874Z,6.95
2018-11-05T06:54:17.214Z,7.00
2018-11-05T06:55:16.530Z,7.00
2018-11-05T06:56:16.851Z,7.00
2018-11-05T06:57:17.152Z,7.00
2018-11-05T06:58:16.431Z,6.99
2018-11-05T06:59:16.752Z,6.99
2018-11-05T07:00:17.109Z,7.12
2018-11-05T07:01:17.146Z,7.09
2018-11-05T07:02:16.501Z,6.99
2018-11-05T07:03:16.922Z,7.00
2018-11-05T07:04:16.223Z,7.02
2018-11-05T07:05:16.563Z,7.00
2018-11-05T07:06:16.849Z,7.00
2018-11-05T07:07:17.149Z,7.00
2018-11-05T07:08:16.457Z,7.05
2018-11-05T07:09:16.758Z,7.03
2018-11-05T07:10:17.075Z,7.03
2018-11-05T07:11:17.190Z,7.06
2018-11-05T07:12:16.570Z,7.05
2018-11-05T07:13:16.897Z,7.06
2018-11-05T07:14:17.235Z,7.06
2018-11-05T07:15:16.538Z,7.09
2018-11-05T07:16:16.833Z,7.24
2018-11-05T07:17:17.106Z,7.19
2018-11-05T07:18:16.485Z,7.19
2018-11-05T07:19:17.244Z,7.31
2018-11-05T07:20:16.903Z,7.27
2018-11-05T07:21:16.958Z,7.33
2018-11-05T07:22:16.242Z,7.34
2018-11-05T07:23:16.536Z,7.35
2018-11-05T07:24:16.835Z,7.33
2018-11-05T07:25:17.134Z,7.31
2018-11-05T07:26:16.416Z,7.29
2018-11-05T07:27:16.744Z,7.26
2018-11-05T07:28:17.033Z,7.29
2018-11-05T07:29:16.343Z,7.20
2018-11-05T07:30:16.661Z,7.27
2018-11-05T07:31:16.733Z,7.29
2018-11-05T07:32:17.038Z,7.29
2018-11-05T07:33:16.416Z,7.29
2018-11-05T07:34:17.039Z,7.41
2018-11-05T07:35:16.579Z,7.41
2018-11-05T07:36:16.870Z,7.47
2018-11-05T07:37:17.162Z,7.43
2018-11-05T07:38:16.479Z,7.48
2018-11-05T07:39:16.760Z,7.55
2018-11-05T07:40:17.092Z,7.62
2018-11-05T07:41:17.165Z,7.62
2018-11-05T07:42:16.464Z,7.62
2018-11-05T07:43:16.783Z,7.68
2018-11-05T07:44:17.121Z,7.75
2018-11-05T07:45:16.454Z,7.84
2018-11-05T07:46:16.777Z,7.95
2018-11-05T07:47:17.088Z,7.98
2018-11-05T07:48:16.409Z,7.98
2018-11-05T07:49:16.750Z,8.13
2018-11-05T07:50:17.167Z,8.30
2018-11-05T07:51:17.101Z,8.26
2018-11-05T07:52:16.414Z,8.29
2018-11-05T07:53:16.736Z,8.29
2018-11-05T07:54:17.059Z,8.39
2018-11-05T07:55:16.410Z,8.52
2018-11-05T07:56:16.833Z,8.62
2018-11-05T07:57:16.356Z,8.80
2018-11-05T07:58:16.653Z,8.86
2018-11-05T07:59:16.966Z,8.96
2018-11-05T08:00:16.302Z,9.12
2018-11-05T08:01:16.355Z,9.48
2018-11-05T08:02:16.680Z,9.55
2018-11-05T08:03:16.994Z,9.53
2018-11-05T08:04:16.345Z,9.92
2018-11-05T08:05:16.653Z,9.95
2018-11-05T08:06:16.968Z,9.96
2018-11-05T08:07:16.289Z,10.23
2018-11-05T08:08:16.650Z,10.45
2018-11-05T08:09:17.054Z,10.40
2018-11-05T08:10:16.398Z,10.51
2018-11-05T08:11:16.446Z,10.54
2018-11-05T08:12:16.773Z,10.74
2018-11-05T08:13:17.100Z,10.68
2018-11-05T08:14:16.481Z,10.70
2018-11-05T08:15:17.025Z,10.77
2018-11-05T08:16:16.328Z,10.98
2018-11-05T08:17:16.645Z,11.16
2018-11-05T08:18:16.954Z,11.25
2018-11-05T08:19:16.255Z,11.22
2018-11-05T08:20:16.570Z,11.25
2018-11-05T08:21:16.621Z,11.26
2018-11-05T08:22:16.934Z,11.36
2018-11-05T08:23:16.240Z,11.39
2018-11-05T08:24:16.550Z,11.46
2018-11-05T08:25:17.087Z,11.49
2018-11-05T08:26:16.383Z,11.51
2018-11-05T08:27:16.705Z,11.43
2018-11-05T08:28:17.009Z,11.42
2018-11-05T08:29:16.319Z,11.40
2018-11-05T08:30:16.637Z,11.49
2018-11-05T08:31:16.672Z,11.54
2018-11-05T08:32:16.993Z,11.51
2018-11-05T08:33:16.277Z,11.53
2018-11-05T08:34:16.784Z,11.60
2018-11-05T08:35:16.282Z,11.61
2018-11-05T08:36:16.590Z,11.58
2018-11-05T08:37:16.916Z,11.63
2018-11-05T08:38:16.238Z,11.64
2018-11-05T08:39:16.572Z,11.65
2018-11-05T08:40:16.977Z,11.70
2018-11-05T08:41:16.889Z,11.72
2018-11-05T08:42:17.227Z,11.78
2018-11-05T08:43:16.534Z,11.78
2018-11-05T08:44:16.854Z,11.84
2018-11-05T08:45:17.163Z,11.89
2018-11-05T08:46:16.463Z,11.93
2018-11-05T08:47:16.785Z,11.96
2018-11-05T08:48:17.120Z,11.99
2018-11-05T08:49:16.414Z,12.02
2018-11-05T08:50:16.928Z,12.05
2018-11-05T08:51:17.091Z,12.08
2018-11-05T08:52:16.270Z,12.02
2018-11-05T08:53:16.588Z,12.05
2018-11-05T08:54:17.016Z,12.11
2018-11-05T08:55:16.449Z,12.09
2018-11-05T08:56:16.782Z,12.16
2018-11-05T08:57:17.085Z,12.23
2018-11-05T08:58:16.378Z,12.30
2018-11-05T08:59:16.686Z,12.30
2018-11-05T09:00:17.031Z,12.29
2018-11-05T09:01:17.089Z,12.33
2018-11-05T09:02:16.384Z,12.37
2018-11-05T09:03:16.701Z,12.41
2018-11-05T09:04:17.013Z,12.41
2018-11-05T09:05:16.419Z,12.46
2018-11-05T09:06:17.063Z,12.44
2018-11-05T09:07:16.385Z,12.51
2018-11-05T09:08:16.691Z,12.51
2018-11-05T09:09:17.033Z,12.57
2018-11-05T09:10:16.519Z,12.63
2018-11-05T09:11:16.701Z,12.72
2018-11-05T09:12:17.254Z,12.72
2018-11-05T09:13:16.558Z,12.72
2018-11-05T09:14:16.896Z,12.78
2018-11-05T09:15:17.184Z,12.81
2018-11-05T09:16:16.605Z,12.82
2018-11-05T09:17:17.172Z,12.87
2018-11-05T09:18:16.456Z,12.88
2018-11-05T09:19:16.844Z,12.92
2018-11-05T09:20:17.210Z,12.95
2018-11-05T09:21:16.249Z,12.98
2018-11-05T09:22:16.536Z,13.08
2018-11-05T09:23:16.849Z,13.09
2018-11-05T09:24:17.136Z,13.15
2018-11-05T09:25:16.430Z,13.15
2018-11-05T09:26:16.710Z,13.21
2018-11-05T09:27:17.031Z,13.25
2018-11-05T09:28:16.333Z,13.27
2018-11-05T09:29:16.634Z,13.26
2018-11-05T09:30:16.990Z,13.33
2018-11-05T09:31:17.033Z,13.37
2018-11-05T09:32:16.350Z,13.42
2018-11-05T09:33:16.641Z,13.44
2018-11-05T09:34:16.959Z,13.47
2018-11-05T09:35:16.297Z,13.49
2018-11-05T09:36:16.628Z,13.60
2018-11-05T09:37:16.920Z,13.60
2018-11-05T09:38:16.224Z,13.63
2018-11-05T09:39:16.546Z,13.65
2018-11-05T09:40:16.900Z,13.67
2018-11-05T09:41:16.931Z,13.74
2018-11-05T09:42:16.240Z,13.74
2018-11-05T09:43:16.552Z,13.71
2018-11-05T09:44:16.860Z,13.76
2018-11-05T09:45:17.181Z,13.70
2018-11-05T09:46:16.495Z,13.77
2018-11-05T09:47:16.780Z,13.76
2018-11-05T09:48:17.104Z,13.78
2018-11-05T09:49:16.408Z,13.84
2018-11-05T09:50:16.702Z,13.78
2018-11-05T09:51:16.751Z,13.78
2018-11-05T09:52:17.051Z,13.80
2018-11-05T09:53:16.357Z,13.81
2018-11-05T09:54:17.061Z,13.85
2018-11-05T09:55:16.378Z,13.85
2018-11-05T09:56:16.677Z,13.84
2018-11-05T09:57:17.049Z,13.87
2018-11-05T09:58:16.601Z,13.85
2018-11-05T09:59:16.944Z,13.90
2018-11-05T10:00:16.302Z,13.87
2018-11-05T10:01:16.332Z,13.90
2018-11-05T10:02:16.658Z,13.91
2018-11-05T10:03:17.246Z,13.85
2018-11-05T10:04:17.450Z,13.81
2018-11-05T10:05:17.209Z,13.84
2018-11-05T10:06:16.915Z,13.84
2018-11-05T10:07:16.241Z,13.85
2018-11-05T10:08:16.542Z,13.85
2018-11-05T10:09:16.877Z,13.84
2018-11-05T10:10:17.281Z,13.85
2018-11-05T10:11:17.222Z,13.88
2018-11-05T10:12:16.545Z,13.87
2018-11-05T10:13:16.854Z,13.87
2018-11-05T10:14:17.173Z,13.90
2018-11-05T10:15:16.503Z,13.90
2018-11-05T10:16:16.788Z,13.85
2018-11-05T10:17:17.108Z,13.82
2018-11-05T10:18:16.403Z,13.85
2018-11-05T10:19:16.713Z,13.82
2018-11-05T10:20:17.017Z,13.82
2018-11-05T10:21:17.077Z,13.78
2018-11-05T10:22:16.399Z,13.78
2018-11-05T10:23:16.708Z,13.81
2018-11-05T10:24:17.036Z,13.77
2018-11-05T10:25:16.487Z,13.77
2018-11-05T10:26:16.941Z,13.80
2018-11-05T10:27:16.444Z,13.85
2018-11-05T10:28:16.717Z,13.82
2018-11-05T10:29:16.995Z,13.78
2018-11-05T10:30:16.309Z,13.74
2018-11-05T10:31:16.329Z,13.80
2018-11-05T10:32:16.662Z,13.77
2018-11-05T10:33:17.048Z,13.78
2018-11-05T10:34:16.411Z,13.78
2018-11-05T10:35:16.744Z,13.78
2018-11-05T10:36:17.061Z,13.80
2018-11-05T10:37:16.361Z,13.78
2018-11-05T10:38:16.687Z,13.78
2018-11-05T10:39:17.003Z,13.78
2018-11-05T10:40:16.371Z,13.80
2018-11-05T10:41:16.370Z,13.81
2018-11-05T10:42:16.647Z,13.82
2018-11-05T10:43:16.989Z,13.85
2018-11-05T10:44:16.304Z,13.84
2018-11-05T10:45:16.689Z,13.85
2018-11-05T10:46:17.164Z,13.91
2018-11-05T10:47:16.662Z,13.90
2018-11-05T10:48:16.950Z,13.94
2018-11-05T10:49:16.242Z,13.92
2018-11-05T10:50:16.547Z,13.91
2018-11-05T10:51:16.776Z,13.91
2018-11-05T10:52:16.655Z,13.92
2018-11-05T10:53:16.519Z,13.91
2018-11-05T10:54:16.855Z,13.90
2018-11-05T10:55:17.194Z,13.91
2018-11-05T10:56:16.514Z,13.92
2018-11-05T10:57:16.815Z,13.90
2018-11-05T10:58:17.215Z,13.88
2018-11-05T10:59:16.862Z,13.87
2018-11-05T11:00:17.190Z,13.87
2018-11-05T11:01:16.261Z,13.85
2018-11-05T11:02:16.610Z,13.90
2018-11-05T11:03:16.921Z,13.91
2018-11-05T11:04:17.219Z,13.88
2018-11-05T11:05:16.610Z,13.94
2018-11-05T11:06:16.972Z,13.95
2018-11-05T11:07:16.308Z,14.04
2018-11-05T11:08:16.611Z,14.02
2018-11-05T11:09:16.919Z,14.01
2018-11-05T11:10:16.259Z,14.00
2018-11-05T11:11:16.265Z,14.05
2018-11-05T11:12:16.579Z,14.07
2018-11-05T11:13:16.905Z,14.09
2018-11-05T11:14:17.193Z,14.12
2018-11-05T11:15:16.616Z,14.15
2018-11-05T11:16:17.102Z,14.18
2018-11-05T11:17:16.392Z,14.19
2018-11-05T11:18:16.691Z,14.20
2018-11-05T11:19:17.020Z,14.23
2018-11-05T11:20:16.319Z,14.29
2018-11-05T11:21:16.356Z,14.33
2018-11-05T11:22:16.746Z,14.32
2018-11-05T11:23:16.478Z,14.36
2018-11-05T11:24:16.762Z,14.46
2018-11-05T11:25:17.104Z,14.50
2018-11-05T11:26:16.449Z,14.55
2018-11-05T11:27:16.780Z,14.60
2018-11-05T11:28:17.223Z,14.62
2018-11-05T11:29:16.867Z,14.67
2018-11-05T11:30:16.525Z,14.60
2018-11-05T11:31:16.581Z,14.67
2018-11-05T11:32:16.862Z,14.73
2018-11-05T11:33:17.169Z,14.74
2018-11-05T11:34:16.477Z,14.81
2018-11-05T11:35:16.795Z,14.84
2018-11-05T11:36:17.128Z,14.84
2018-11-05T11:37:16.521Z,14.94
2018-11-05T11:38:17.124Z,14.92
2018-11-05T11:39:16.441Z,14.90
2018-11-05T11:40:16.753Z,14.85
2018-11-05T11:41:16.760Z,14.95
2018-11-05T11:42:17.076Z,14.98
2018-11-05T11:43:16.497Z,14.98
2018-11-05T11:44:16.828Z,14.99
2018-11-05T11:45:16.429Z,14.99
2018-11-05T11:46:16.769Z,14.98
2018-11-05T11:47:17.087Z,15.01
2018-11-05T11:48:16.428Z,15.04
2018-11-05T11:49:16.715Z,15.04
2018-11-05T11:50:17.026Z,15.06
2018-11-05T11:51:17.082Z,15.02
2018-11-05T11:52:16.410Z,15.08
2018-11-05T11:53:16.841Z,15.12
2018-11-05T11:54:16.493Z,15.11
2018-11-05T11:55:16.805Z,15.16
2018-11-05T11:56:17.199Z,15.16
2018-11-05T11:57:16.549Z,15.16
2018-11-05T11:58:16.873Z,15.18
2018-11-05T11:59:17.159Z,15.18
2018-11-05T12:00:16.540Z,15.18
2018-11-05T12:01:16.589Z,15.16
2018-11-05T12:02:16.931Z,15.21
2018-11-05T12:03:16.444Z,15.18
2018-11-05T12:04:16.799Z,15.23
2018-11-05T12:05:17.241Z,15.26
2018-11-05T12:06:16.787Z,15.33
2018-11-05T12:07:17.116Z,15.29
2018-11-05T12:08:16.424Z,15.25
2018-11-05T12:09:16.746Z,15.35
2018-11-05T12:10:17.065Z,15.35
2018-11-05T12:11:17.075Z,15.42
2018-11-05T12:12:16.417Z,15.42
2018-11-05T12:13:16.698Z,15.46
2018-11-05T12:14:17.045Z,15.46
2018-11-05T12:15:16.564Z,15.54
2018-11-05T12:16:16.861Z,15.53
2018-11-05T12:17:17.194Z,15.38
2018-11-05T12:18:16.469Z,15.47
2018-11-05T12:19:16.754Z,15.59
2018-11-05T12:20:17.153Z,15.63
2018-11-05T12:21:17.105Z,15.71
2018-11-05T12:22:16.412Z,15.77
2018-11-05T12:23:16.681Z,15.81
2018-11-05T12:24:17.005Z,15.98
2018-11-05T12:25:16.330Z,16.01
2018-11-05T12:26:16.619Z,16.09
2018-11-05T12:27:16.898Z,16.11
2018-11-05T12:28:17.203Z,16.25
2018-11-05T12:29:16.501Z,16.38
2018-11-05T12:30:16.823Z,16.49
2018-11-05T12:31:16.887Z,16.43
2018-11-05T12:32:17.263Z,16.42
2018-11-05T12:33:16.743Z,16.35
2018-11-05T12:34:17.038Z,16.47
2018-11-05T12:35:16.392Z,16.50
2018-11-05T12:36:16.743Z,16.53
2018-11-05T12:37:17.053Z,16.59
2018-11-05T12:38:16.348Z,16.60
2018-11-05T12:39:16.640Z,16.60
2018-11-05T12:40:16.946Z,16.62
2018-11-05T12:41:17.001Z,16.56
2018-11-05T12:42:16.309Z,16.47
2018-11-05T12:43:16.590Z,16.52
2018-11-05T12:44:16.892Z,16.64
2018-11-05T12:45:16.241Z,16.64
2018-11-05T12:46:16.555Z,16.60
2018-11-05T12:47:16.863Z,16.56
2018-11-05T12:48:17.183Z,16.60
2018-11-05T12:49:16.458Z,16.50
2018-11-05T12:50:16.752Z,16.43
2018-11-05T12:51:16.792Z,16.47
2018-11-05T12:52:17.082Z,16.45
2018-11-05T12:53:16.409Z,16.55
2018-11-05T12:54:16.717Z,16.50
2018-11-05T12:55:17.056Z,16.57
2018-11-05T12:56:16.366Z,16.53
2018-11-05T12:57:16.662Z,16.56
2018-11-05T12:58:16.996Z,16.64
2018-11-05T12:59:16.333Z,16.59
2018-11-05T13:00:16.673Z,16.60
2018-11-05T13:01:16.713Z,16.57
2018-11-05T13:02:17.011Z,16.55
2018-11-05T13:03:16.297Z,16.52